createdAt,value
2023-03-12T00:02:11.385Z,100953.03
2023-03-12T00:04:38.051Z,100953.03
2023-03-12T00:07:06.608Z,100946.28
2023-03-12T00:09:37.786Z,100945.38
2023-03-12T00:12:05.471Z,100950.28
2023-03-12T00:14:32.592Z,100945.19
2023-03-12T00:16:59.406Z,100942.53
2023-03-12T00:19:26.312Z,100934.84
2023-03-12T00:21:53.003Z,100927.19
2023-03-12T00:24:20.662Z,100928.03
2023-03-12T00:26:47.296Z,100921.25
2023-03-12T00:29:13.959Z,100931.47
2023-03-12T00:31:41.651Z,100936.78
2023-03-12T00:34:09.919Z,100922.50
2023-03-12T00:36:36.553Z,100932.22
2023-03-12T00:39:04.145Z,100929.97
2023-03-12T00:41:30.839Z,100923.41
2023-03-12T00:43:57.934Z,100922.69
2023-03-12T00:46:24.763Z,100923.81
2023-03-12T00:48:51.765Z,100911.16
2023-03-12T00:51:19.126Z,100912.06
2023-03-12T00:53:45.848Z,100909.69
2023-03-12T00:56:12.541Z,100909.81
2023-03-12T00:58:39.186Z,100907.44
2023-03-12T01:01:05.968Z,100904.09
2023-03-12T01:03:32.572Z,100903.28
2023-03-12T01:05:59.533Z,100899.06
2023-03-12T01:08:26.299Z,100893.25
2023-03-12T01:10:53.260Z,100889.88
2023-03-12T01:13:20.553Z,100894.19
2023-03-12T01:15:47.228Z,100894.97
2023-03-12T01:18:14.026Z,100892.53
2023-03-12T01:20:42.056Z,100889.88
2023-03-12T01:23:09.305Z,100890.72
2023-03-12T01:25:36.760Z,100880.50
2023-03-12T01:28:03.625Z,100878.66
2023-03-12T01:30:31.322Z,100881.91
2023-03-12T01:32:58.073Z,100874.25
2023-03-12T01:35:25.591Z,100874.06
2023-03-12T01:37:53.092Z,100872.16
2023-03-12T01:40:25.574Z,100872.75
2023-03-12T01:42:57.224Z,100877.66
2023-03-12T01:46:03.224Z,100875.72
2023-03-12T01:48:36.473Z,100881.44
2023-03-12T01:51:03.616Z,100884.72
2023-03-12T01:53:30.799Z,100875.22
2023-03-12T01:56:00.829Z,100860.72
2023-03-12T01:58:30.017Z,100864.88
2023-03-12T02:00:56.628Z,100867.44
2023-03-12T02:03:23.493Z,100866.59
2023-03-12T02:06:02.619Z,100864.16
2023-03-12T02:08:29.582Z,100858.25
2023-03-12T02:10:56.290Z,100857.44
2023-03-12T02:13:22.842Z,100850.56
2023-03-12T02:15:49.472Z,100841.19
2023-03-12T02:18:19.127Z,100839.47
2023-03-12T02:21:06.098Z,100847.00
2023-03-12T02:23:41.507Z,100842.72
2023-03-12T02:26:09.764Z,100847.63
2023-03-12T02:28:42.728Z,100845.66
2023-03-12T02:31:13.781Z,100848.84
2023-03-12T02:33:40.891Z,100832.50
2023-03-12T02:36:09.370Z,100830.53
2023-03-12T02:38:46.619Z,100830.34
2023-03-12T02:41:21.391Z,100829.22
2023-03-12T02:44:05.059Z,100834.19
2023-03-12T02:46:36.855Z,100817.97
2023-03-12T02:49:03.751Z,100819.69
2023-03-12T02:51:30.416Z,100808.66
2023-03-12T02:53:56.998Z,100817.97
2023-03-12T02:56:29.056Z,100803.53
2023-03-12T02:58:55.651Z,100807.03
2023-03-12T03:01:22.500Z,100799.25
2023-03-12T03:03:49.407Z,100794.84
2023-03-12T03:06:17.081Z,100789.66
2023-03-12T03:08:43.991Z,100780.22
2023-03-12T03:11:11.493Z,100782.69
2023-03-12T03:13:38.187Z,100778.31
2023-03-12T03:16:05.453Z,100779.81
2023-03-12T03:18:32.599Z,100777.03
2023-03-12T03:21:02.969Z,100768.34
2023-03-12T03:23:29.842Z,100775.91
2023-03-12T03:25:56.560Z,100766.41
2023-03-12T03:28:25.756Z,100762.81
2023-03-12T03:30:54.249Z,100761.06
2023-03-12T03:33:21.583Z,100757.47
2023-03-12T03:35:48.766Z,100754.81
2023-03-12T03:38:16.071Z,100751.25
2023-03-12T03:40:42.779Z,100747.75
2023-03-12T03:43:09.466Z,100744.97
2023-03-12T03:45:36.122Z,100742.31
2023-03-12T03:48:02.739Z,100745.56
2023-03-12T03:50:29.447Z,100735.13
2023-03-12T03:52:55.969Z,100745.22
2023-03-12T03:55:22.788Z,100741.63
2023-03-12T03:57:49.342Z,100748.28
2023-03-12T04:00:17.988Z,100742.25
2023-03-12T04:02:44.875Z,100743.88
2023-03-12T04:05:12.119Z,100739.56
2023-03-12T04:07:38.936Z,100735.16
2023-03-12T04:10:05.963Z,100732.59
2023-03-12T04:12:32.589Z,100715.88
2023-03-12T04:14:59.182Z,100728.78
2023-03-12T04:17:25.794Z,100733.19
2023-03-12T04:19:54.040Z,100732.34
2023-03-12T04:22:20.706Z,100720.50
2023-03-12T04:24:47.405Z,100718.06
2023-03-12T04:27:14.213Z,100712.94
2023-03-12T04:29:42.173Z,100707.91
2023-03-12T04:32:08.758Z,100697.69
2023-03-12T04:34:35.464Z,100683.19
2023-03-12T04:37:02.956Z,100685.75
2023-03-12T04:39:29.524Z,100676.34
2023-03-12T04:41:56.237Z,100671.00
2023-03-12T04:44:22.976Z,100674.25
2023-03-12T04:46:49.696Z,100669.84
2023-03-12T04:49:16.484Z,100664.63
2023-03-12T04:51:43.393Z,100667.06
2023-03-12T04:54:10.197Z,100658.38
2023-03-12T04:56:36.932Z,100653.13
2023-03-12T04:59:04.918Z,100647.00
2023-03-12T05:01:33.808Z,100640.00
2023-03-12T05:04:00.624Z,100624.53
2023-03-12T05:06:27.292Z,100632.00
2023-03-12T05:08:54.037Z,100630.13
2023-03-12T05:11:21.533Z,100627.59
2023-03-12T05:13:48.739Z,100628.28
2023-03-12T05:16:17.193Z,100621.31
2023-03-12T05:18:45.005Z,100617.00
2023-03-12T05:21:14.038Z,100617.81
2023-03-12T05:23:42.618Z,100613.41
2023-03-12T05:26:26.442Z,100618.41
2023-03-12T05:28:53.430Z,100621.56
2023-03-12T05:31:20.889Z,100629.09
2023-03-12T05:33:48.337Z,100629.09
2023-03-12T05:36:16.612Z,100628.88
2023-03-12T05:38:43.386Z,100612.03
2023-03-12T05:41:19.265Z,100613.53
2023-03-12T05:43:45.889Z,100614.22
2023-03-12T05:46:12.724Z,100617.59
2023-03-12T05:48:39.321Z,100616.66
2023-03-12T05:51:05.896Z,100606.44
2023-03-12T05:53:34.162Z,100603.66
2023-03-12T05:56:11.072Z,100602.72
2023-03-12T05:58:38.126Z,100594.09
2023-03-12T06:01:12.069Z,100597.50
2023-03-12T06:03:38.706Z,100602.47
2023-03-12T06:06:05.600Z,100603.31
2023-03-12T06:08:32.334Z,100599.81
2023-03-12T06:10:59.543Z,100599.81
2023-03-12T06:13:28.084Z,100590.38
2023-03-12T06:15:54.665Z,100590.28
2023-03-12T06:18:21.280Z,100590.16
2023-03-12T06:20:47.778Z,100595.97
2023-03-12T06:23:14.413Z,100601.78
2023-03-12T06:25:41.499Z,100610.97
2023-03-12T06:28:08.182Z,100599.91
2023-03-12T06:30:34.784Z,100599.69
2023-03-12T06:33:04.066Z,100589.44
2023-03-12T06:35:30.652Z,100588.41
2023-03-12T06:37:57.211Z,100576.44
2023-03-12T06:40:23.809Z,100579.81
2023-03-12T06:42:50.431Z,100575.38
2023-03-12T06:45:18.413Z,100579.44
2023-03-12T06:47:45.087Z,100587.81
2023-03-12T06:50:11.672Z,100573.03
2023-03-12T06:52:38.413Z,100579.56
2023-03-12T06:55:05.515Z,100575.13
2023-03-12T06:57:32.117Z,100580.94
2023-03-12T06:59:58.756Z,100588.25
2023-03-12T07:02:25.497Z,100580.31
2023-03-12T07:04:52.467Z,100580.91
2023-03-12T07:07:20.089Z,100573.00
2023-03-12T07:09:46.680Z,100566.09
2023-03-12T07:12:13.346Z,100566.81
2023-03-12T07:14:40.016Z,100561.69
2023-03-12T07:17:07.214Z,100560.88
2023-03-12T07:19:33.856Z,100560.88
2023-03-12T07:22:00.738Z,100564.25
2023-03-12T07:24:27.364Z,100553.06
2023-03-12T07:26:53.979Z,100551.31
2023-03-12T07:29:20.572Z,100543.50
2023-03-12T07:31:47.162Z,100549.31
2023-03-12T07:34:13.937Z,100546.53
2023-03-12T07:36:40.685Z,100542.00
2023-03-12T07:39:08.231Z,100552.09
2023-03-12T07:41:37.325Z,100552.09
2023-03-12T07:44:03.952Z,100546.16
2023-03-12T07:46:31.740Z,100539.31
2023-03-12T07:48:58.497Z,100533.22
2023-03-12T07:51:25.154Z,100535.56
2023-03-12T07:53:51.689Z,100532.06
2023-03-12T07:56:18.836Z,100527.88
2023-03-12T07:58:46.362Z,100522.50
2023-03-12T08:01:13.329Z,100505.13
2023-03-12T08:03:41.214Z,100501.66
2023-03-12T08:06:08.026Z,100500.69
2023-03-12T08:08:36.213Z,100507.31
2023-03-12T08:11:05.098Z,100504.66
2023-03-12T08:13:31.734Z,100505.44
2023-03-12T08:15:58.371Z,100505.44
2023-03-12T08:18:26.941Z,100505.34
2023-03-12T08:20:54.614Z,100503.31
2023-03-12T08:23:22.108Z,100503.31
2023-03-12T08:25:49.857Z,100507.53
2023-03-12T08:28:17.750Z,100503.91
2023-03-12T08:30:49.772Z,100514.16
2023-03-12T08:33:16.830Z,100506.19
2023-03-12T08:35:43.603Z,100508.91
2023-03-12T08:38:10.450Z,100506.19
2023-03-12T08:40:37.339Z,100513.88
2023-03-12T08:43:04.665Z,100505.28
2023-03-12T08:45:31.533Z,100500.69
2023-03-12T08:47:58.209Z,100498.94
2023-03-12T08:50:29.259Z,100496.38
2023-03-12T08:52:56.380Z,100487.63
2023-03-12T08:55:23.068Z,100497.50
2023-03-12T08:57:49.705Z,100495.53
2023-03-12T09:00:17.980Z,100502.94
2023-03-12T09:02:45.301Z,100508.75
2023-03-12T09:05:12.280Z,100499.91
2023-03-12T09:07:39.022Z,100483.56
2023-03-12T09:10:06.931Z,100478.44
2023-03-12T09:12:33.676Z,100480.88
2023-03-12T09:15:04.543Z,100470.50
2023-03-12T09:17:32.692Z,100466.97
2023-03-12T09:20:00.103Z,100479.00
2023-03-12T09:22:26.721Z,100480.38
2023-03-12T09:24:53.448Z,100470.78
2023-03-12T09:27:19.986Z,100471.63
2023-03-12T09:29:59.570Z,100466.25
2023-03-12T09:32:27.945Z,100473.09
2023-03-12T09:34:54.996Z,100454.19
2023-03-12T09:37:23.973Z,100459.09
2023-03-12T09:39:53.249Z,100461.50
2023-03-12T09:42:40.115Z,100457.88
2023-03-12T09:45:10.685Z,100451.56
2023-03-12T09:47:47.884Z,100452.13
2023-03-12T09:50:46.161Z,100459.56
2023-03-12T09:53:41.729Z,100456.84
2023-03-12T09:56:18.245Z,100459.94
2023-03-12T09:58:49.322Z,100454.72
2023-03-12T10:01:29.893Z,100462.94
2023-03-12T10:04:14.511Z,100456.06
2023-03-12T10:06:46.884Z,100461.88
2023-03-12T10:09:44.874Z,100464.06
2023-03-12T10:12:44.889Z,100458.66
2023-03-12T10:15:24.252Z,100457.59
2023-03-12T10:17:56.424Z,100444.50
2023-03-12T10:20:44.213Z,100468.28
2023-03-12T10:23:21.046Z,100448.84
2023-03-12T10:25:59.546Z,100457.66
2023-03-12T10:28:30.439Z,100449.66
2023-03-12T10:31:06.385Z,100447.38
2023-03-12T10:33:48.911Z,100448.47
2023-03-12T10:36:19.395Z,100443.47
2023-03-12T10:38:48.542Z,100438.06
2023-03-12T10:41:22.139Z,100439.44
2023-03-12T10:43:48.832Z,100443.34
2023-03-12T10:46:54.116Z,100438.63
2023-03-12T10:49:24.711Z,100436.47
2023-03-12T10:52:14.237Z,100440.91
2023-03-12T10:54:44.435Z,100444.69
2023-03-12T10:57:13.773Z,100443.34
2023-03-12T10:59:43.322Z,100441.16
2023-03-12T11:02:33.335Z,100431.69
2023-03-12T11:05:02.740Z,100432.59
2023-03-12T11:07:35.428Z,100419.06
2023-03-12T11:10:07.920Z,100422.84
2023-03-12T11:12:40.063Z,100422.56
2023-03-12T11:15:20.687Z,100435.13
2023-03-12T11:17:47.686Z,100435.66
2023-03-12T11:20:29.881Z,100420.19
2023-03-12T11:22:56.910Z,100414.22
2023-03-12T11:25:29.108Z,100411.88
2023-03-12T11:28:00.755Z,100419.31
2023-03-12T11:30:37.983Z,100421.72
2023-03-12T11:33:05.971Z,100419.03
2023-03-12T11:36:05.129Z,100419.56
2023-03-12T11:39:05.362Z,100430.38
2023-03-12T11:42:01.076Z,100433.63
2023-03-12T11:44:38.880Z,100425.91
2023-03-12T11:47:32.670Z,100422.34
2023-03-12T11:50:11.555Z,100415.34
2023-03-12T11:53:17.422Z,100413.28
2023-03-12T11:55:54.321Z,100417.16
2023-03-12T11:58:20.738Z,100407.25
2023-03-12T12:00:59.552Z,100404.78
2023-03-12T12:04:17.289Z,100408.44
2023-03-12T12:07:08.485Z,100400.13
2023-03-12T12:09:51.162Z,100403.19
2023-03-12T12:12:52.295Z,100401.00
2023-03-12T12:15:28.072Z,100395.41
2023-03-12T12:18:15.959Z,100392.28
2023-03-12T12:21:01.683Z,100399.41
2023-03-12T12:24:05.197Z,100387.72
2023-03-12T12:27:09.347Z,100367.31
2023-03-12T12:29:43.369Z,100370.75
2023-03-12T12:32:41.811Z,100366.16
2023-03-12T12:35:37.108Z,100354.31
2023-03-12T12:38:13.448Z,100361.28
2023-03-12T12:40:49.069Z,100357.47
2023-03-12T12:43:23.770Z,100350.28
2023-03-12T12:45:53.275Z,100348.59
2023-03-12T12:48:40.343Z,100361.66
2023-03-12T12:51:09.063Z,100354.94
2023-03-12T12:53:57.780Z,100348.97
2023-03-12T12:56:38.645Z,100353.69
2023-03-12T12:59:37.033Z,100352.09
2023-03-12T13:02:16.935Z,100348.56
2023-03-12T13:04:45.477Z,100351.19
2023-03-12T13:07:12.071Z,100343.94
2023-03-12T13:09:44.406Z,100336.41
2023-03-12T13:12:40.932Z,100329.63
2023-03-12T13:15:30.232Z,100326.28
2023-03-12T13:17:59.707Z,100316.28
2023-03-12T13:20:42.206Z,100313.38
2023-03-12T13:23:27.087Z,100322.25
2023-03-12T13:26:22.667Z,100324.03
2023-03-12T13:29:06.046Z,100332.91
2023-03-12T13:31:39.362Z,100337.47
2023-03-12T13:34:06.047Z,100339.72
2023-03-12T13:36:37.095Z,100337.78
2023-03-12T13:39:06.854Z,100339.84
2023-03-12T13:41:49.945Z,100336.31
2023-03-12T13:44:39.719Z,100344.06
2023-03-12T13:47:12.178Z,100329.84
2023-03-12T13:49:47.784Z,100331.44
2023-03-12T13:52:14.397Z,100335.34
2023-03-12T13:54:45.347Z,100333.53
2023-03-12T13:57:31.901Z,100333.69
2023-03-12T13:59:59.942Z,100333.53
2023-03-12T14:02:36.893Z,100335.00
2023-03-12T14:05:10.716Z,100341.44
2023-03-12T14:07:55.402Z,100339.19
2023-03-12T14:10:33.144Z,100344.34
2023-03-12T14:13:33.804Z,100347.91
2023-03-12T14:16:11.520Z,100351.16
2023-03-12T14:18:39.902Z,100352.09
2023-03-12T14:21:14.596Z,100351.75
2023-03-12T14:23:49.412Z,100358.22
2023-03-12T14:26:24.602Z,100366.16
2023-03-12T14:29:05.498Z,100365.34
2023-03-12T14:31:33.518Z,100369.38
2023-03-12T14:34:15.229Z,100363.25
2023-03-12T14:36:47.431Z,100365.50
2023-03-12T14:39:43.557Z,100355.97
2023-03-12T14:42:18.390Z,100364.03
2023-03-12T14:44:58.520Z,100355.63
2023-03-12T14:47:25.259Z,100367.22
2023-03-12T14:49:52.227Z,100367.22
2023-03-12T14:52:30.300Z,100372.84
2023-03-12T14:55:08.013Z,100380.47
2023-03-12T14:57:34.881Z,100374.81
2023-03-12T15:00:01.932Z,100384.00
2023-03-12T15:02:31.372Z,100383.50
2023-03-12T15:05:01.520Z,100383.00
2023-03-12T15:07:35.437Z,100381.06
2023-03-12T15:10:06.126Z,100378.94
2023-03-12T15:12:38.142Z,100377.78
2023-03-12T15:15:23.209Z,100377.78
2023-03-12T15:17:50.525Z,100381.50
2023-03-12T15:20:26.055Z,100373.22
2023-03-12T15:22:53.592Z,100369.66
2023-03-12T15:25:33.674Z,100368.00
2023-03-12T15:28:28.483Z,100359.91
2023-03-12T15:31:24.907Z,100371.69
2023-03-12T15:34:05.965Z,100366.97
2023-03-12T15:36:50.337Z,100373.78
2023-03-12T15:39:22.813Z,100363.25
2023-03-12T15:41:49.954Z,100368.41
2023-03-12T15:44:19.848Z,100371.63
2023-03-12T15:46:48.943Z,100363.09
2023-03-12T15:49:26.471Z,100360.66
2023-03-12T15:52:24.727Z,100372.00
2023-03-12T15:55:01.881Z,100369.41
2023-03-12T15:57:30.063Z,100360.03
2023-03-12T16:00:14.776Z,100352.44
2023-03-12T16:02:50.432Z,100350.81
2023-03-12T16:05:18.491Z,100354.38
2023-03-12T16:07:45.064Z,100355.03
2023-03-12T16:10:15.692Z,100359.38
2023-03-12T16:12:44.176Z,100352.63
2023-03-12T16:15:22.782Z,100354.03
2023-03-12T16:17:49.406Z,100353.69
2023-03-12T16:20:17.770Z,100367.13
2023-03-12T16:22:44.687Z,100368.72
2023-03-12T16:25:13.164Z,100372.56
2023-03-12T16:27:49.226Z,100365.28
2023-03-12T16:30:26.107Z,100374.66
2023-03-12T16:32:52.958Z,100365.91
2023-03-12T16:35:21.021Z,100367.69
2023-03-12T16:37:48.104Z,100359.13
2023-03-12T16:40:27.526Z,100360.75
2023-03-12T16:43:02.907Z,100371.09
2023-03-12T16:45:33.196Z,100373.06
2023-03-12T16:48:02.224Z,100368.84
2023-03-12T16:50:29.253Z,100360.28
2023-03-12T16:52:55.810Z,100359.47
2023-03-12T16:55:26.420Z,100352.22
2023-03-12T16:58:00.343Z,100356.91
2023-03-12T17:00:30.404Z,100342.88
2023-03-12T17:02:58.088Z,100337.84
2023-03-12T17:05:26.688Z,100329.63
2023-03-12T17:07:54.738Z,100335.00
2023-03-12T17:10:22.608Z,100344.69
2023-03-12T17:12:49.975Z,100353.59
2023-03-12T17:15:28.317Z,100357.19
2023-03-12T17:17:59.445Z,100362.69
2023-03-12T17:20:26.891Z,100368.22
2023-03-12T17:22:53.399Z,100372.75
2023-03-12T17:25:26.753Z,100378.91
2023-03-12T17:27:54.022Z,100376.50
2023-03-12T17:30:22.270Z,100370.66
2023-03-12T17:32:50.987Z,100381.38
2023-03-12T17:35:19.149Z,100379.75
2023-03-12T17:37:48.436Z,100384.09
2023-03-12T17:40:15.933Z,100382.84
2023-03-12T17:42:42.599Z,100384.78
2023-03-12T17:45:10.322Z,100382.19
2023-03-12T17:47:37.352Z,100389.16
2023-03-12T17:50:08.103Z,100393.69
2023-03-12T17:52:35.626Z,100394.81
2023-03-12T17:55:03.413Z,100389.97
2023-03-12T17:57:30.157Z,100393.38
2023-03-12T17:59:56.837Z,100392.72
2023-03-12T18:02:23.611Z,100408.25
2023-03-12T18:04:50.409Z,100404.22
2023-03-12T18:07:17.520Z,100404.22
2023-03-12T18:09:44.677Z,100411.03
2023-03-12T18:12:12.526Z,100398.41
2023-03-12T18:14:39.148Z,100403.41
2023-03-12T18:17:06.829Z,100402.63
2023-03-12T18:19:35.253Z,100407.63
2023-03-12T18:22:02.239Z,100409.25
2023-03-12T18:24:28.913Z,100421.19
2023-03-12T18:26:55.726Z,100425.25
2023-03-12T18:29:22.307Z,100417.28
2023-03-12T18:31:48.848Z,100425.06
2023-03-12T18:34:16.007Z,100427.50
2023-03-12T18:36:42.744Z,100409.38
2023-03-12T18:39:09.890Z,100402.59
2023-03-12T18:41:36.619Z,100392.22
2023-03-12T18:44:03.629Z,100391.59
2023-03-12T18:46:30.414Z,100386.59
2023-03-12T18:48:57.137Z,100386.09
2023-03-12T18:51:23.806Z,100393.41
2023-03-12T18:53:50.385Z,100381.28
2023-03-12T18:56:17.958Z,100377.72
2023-03-12T18:58:44.497Z,100378.53
2023-03-12T19:01:13.054Z,100374.94
2023-03-12T19:03:39.955Z,100365.41
2023-03-12T19:06:10.094Z,100371.41
2023-03-12T19:08:38.069Z,100375.63
2023-03-12T19:11:07.273Z,100377.03
2023-03-12T19:13:33.980Z,100381.25
2023-03-12T19:16:02.467Z,100383.50
2023-03-12T19:18:29.814Z,100384.16
2023-03-12T19:20:57.490Z,100377.97
2023-03-12T19:23:24.183Z,100377.97
2023-03-12T19:25:51.155Z,100386.56
2023-03-12T19:28:17.955Z,100389.00
2023-03-12T19:30:44.576Z,100390.59
2023-03-12T19:33:11.319Z,100390.59
2023-03-12T19:35:39.579Z,100387.19
2023-03-12T19:38:06.338Z,100377.03
2023-03-12T19:40:34.189Z,100382.19
2023-03-12T19:43:01.776Z,100377.97
2023-03-12T19:45:28.636Z,100378.97
2023-03-12T19:47:55.321Z,100374.75
2023-03-12T19:50:21.903Z,100373.97
2023-03-12T19:52:49.749Z,100379.16
2023-03-12T19:55:16.629Z,100365.41
2023-03-12T19:57:43.353Z,100379.94
2023-03-12T20:00:12.337Z,100368.78
2023-03-12T20:02:40.169Z,100365.41
2023-03-12T20:05:07.819Z,100374.13
2023-03-12T20:07:34.933Z,100365.53
2023-03-12T20:10:01.532Z,100363.94
2023-03-12T20:12:28.513Z,100359.59
2023-03-12T20:14:55.116Z,100360.53
2023-03-12T20:17:21.939Z,100354.56
2023-03-12T20:19:48.655Z,100360.53
2023-03-12T20:22:15.242Z,100359.72
2023-03-12T20:24:41.908Z,100352.78
2023-03-12T20:27:09.698Z,100360.53
2023-03-12T20:29:36.345Z,100347.59
2023-03-12T20:32:03.034Z,100362.31
2023-03-12T20:34:29.759Z,100346.97
2023-03-12T20:36:57.998Z,100350.38
2023-03-12T20:39:24.656Z,100337.59
2023-03-12T20:41:51.263Z,100322.41
2023-03-12T20:44:18.418Z,100327.75
2023-03-12T20:46:46.115Z,100324.69
2023-03-12T20:49:12.800Z,100327.47
2023-03-12T20:51:40.614Z,100321.47
2023-03-12T20:54:07.261Z,100315.47
2023-03-12T20:56:33.915Z,100316.13
2023-03-12T20:59:00.445Z,100316.13
2023-03-12T21:01:27.696Z,100317.75
2023-03-12T21:03:59.544Z,100308.03
2023-03-12T21:06:26.689Z,100305.25
2023-03-12T21:08:56.206Z,100304.44
2023-03-12T21:11:22.796Z,100300.09
2023-03-12T21:13:49.382Z,100299.28
2023-03-12T21:16:16.117Z,100300.91
2023-03-12T21:18:42.816Z,100293.94
2023-03-12T21:21:09.670Z,100291.38
2023-03-12T21:23:36.699Z,100279.22
2023-03-12T21:26:08.902Z,100281.81
2023-03-12T21:28:35.904Z,100283.44
2023-03-12T21:31:08.172Z,100271.44
2023-03-12T21:33:35.119Z,100279.22
2023-03-12T21:36:04.996Z,100262.72
2023-03-12T21:38:31.885Z,100268.53
2023-03-12T21:41:07.626Z,100265.75
2023-03-12T21:43:34.743Z,100262.22
2023-03-12T21:46:10.388Z,100259.44
2023-03-12T21:48:37.375Z,100256.88
2023-03-12T21:51:06.280Z,100248.13
2023-03-12T21:53:33.455Z,100246.34
2023-03-12T21:56:01.514Z,100244.41
2023-03-12T21:58:29.952Z,100239.22
2023-03-12T22:01:05.778Z,100235.00
2023-03-12T22:03:32.757Z,100237.44
2023-03-12T22:06:00.028Z,100232.09
2023-03-12T22:08:26.796Z,100221.75
2023-03-12T22:10:53.605Z,100212.22
2023-03-12T22:13:20.353Z,100209.25
2023-03-12T22:15:55.156Z,100203.94
2023-03-12T22:18:23.077Z,100204.75
2023-03-12T22:20:58.084Z,100193.38
2023-03-12T22:23:25.250Z,100194.19
2023-03-12T22:25:52.045Z,100185.44
2023-03-12T22:28:19.746Z,100174.31
2023-03-12T22:30:46.754Z,100164.75
2023-03-12T22:33:13.586Z,100152.59
2023-03-12T22:35:47.073Z,100155.19
2023-03-12T22:38:14.241Z,100157.97
2023-03-12T22:40:42.818Z,100156.34
2023-03-12T22:43:09.540Z,100140.03
2023-03-12T22:45:36.407Z,100143.41
2023-03-12T22:48:04.402Z,100136.63
2023-03-12T22:50:31.103Z,100133.06
2023-03-12T22:52:58.070Z,100130.47
2023-03-12T22:55:25.364Z,100118.53
2023-03-12T22:57:52.034Z,100114.31
2023-03-12T23:00:23.012Z,100101.38
2023-03-12T23:02:50.203Z,100108.16
2023-03-12T23:05:17.416Z,100100.56
2023-03-12T23:07:44.382Z,100094.41
2023-03-12T23:10:11.551Z,100098.63
2023-03-12T23:12:38.169Z,100083.09
2023-03-12T23:15:05.846Z,100078.69
2023-03-12T23:17:32.408Z,100076.75
2023-03-12T23:19:59.117Z,100075.97
2023-03-12T23:22:25.747Z,100072.38
2023-03-12T23:24:52.699Z,100064.63
2023-03-12T23:27:19.350Z,100060.25
2023-03-12T23:29:45.973Z,100054.88
2023-03-12T23:32:12.954Z,100047.13
2023-03-12T23:34:39.553Z,100050.19
2023-03-12T23:37:07.240Z,100045.81
2023-03-12T23:39:42.010Z,100040.25
2023-03-12T23:42:15.040Z,100040.72
2023-03-12T23:44:41.661Z,100042.16
2023-03-12T23:47:08.328Z,100030.00
2023-03-12T23:49:35.138Z,100031.44
2023-03-12T23:52:01.836Z,100023.66
2023-03-12T23:54:28.527Z,100028.84
2023-03-12T23:56:56.292Z,100026.09
2023-03-12T23:59:23.044Z,100013.97
